sensor_id;sensor_type;location;lat;lon;timestamp;P1;durP1;ratioP1;P2;durP2;ratioP2
7253;SDS011;4060;49.186;9.226;2024-02-16T00:02:04;3.55;;;3.25;;
7253;SDS011;4060;49.186;9.226;2024-02-16T00:04:34;4.10;;;3.55;;
7253;SDS011;4060;49.186;9.226;2024-02-16T00:07:06;3.92;;;3.60;;
7253;SDS011;4060;49.186;9.226;2024-02-16T00:09:37;3.20;;;2.90;;
7253;SDS011;4060;49.186;9.226;2024-02-16T00:12:07;3.60;;;3.05;;
7253;SDS011;4060;49.186;9.226;2024-02-16T00:14:37;4.82;;;3.40;;
7253;SDS011;4060;49.186;9.226;2024-02-16T00:17:07;4.30;;;3.47;;
7253;SDS011;4060;49.186;9.226;2024-02-16T00:19:37;3.92;;;3.35;;
7253;SDS011;4060;49.186;9.226;2024-02-16T00:22:09;3.15;;;2.85;;
7253;SDS011;4060;49.186;9.226;2024-02-16T00:24:40;2.85;;;2.65;;
7253;SDS011;4060;49.186;9.226;2024-02-16T00:27:10;3.33;;;3.00;;
7253;SDS011;4060;49.186;9.226;2024-02-16T00:29:41;4.13;;;3.00;;
7253;SDS011;4060;49.186;9.226;2024-02-16T00:32:12;3.70;;;3.17;;
7253;SDS011;4060;49.186;9.226;2024-02-16T00:34:43;3.35;;;2.63;;
7253;SDS011;4060;49.186;9.226;2024-02-16T00:37:14;3.15;;;2.90;;
7253;SDS011;4060;49.186;9.226;2024-02-16T00:39:44;3.22;;;2.92;;
7253;SDS011;4060;49.186;9.226;2024-02-16T00:42:13;4.18;;;3.00;;
7253;SDS011;4060;49.186;9.226;2024-02-16T00:44:43;3.42;;;2.78;;
7253;SDS011;4060;49.186;9.226;2024-02-16T00:47:12;3.42;;;2.80;;
7253;SDS011;4060;49.186;9.226;2024-02-16T00:49:43;3.30;;;3.00;;
7253;SDS011;4060;49.186;9.226;2024-02-16T00:52:15;3.20;;;2.45;;
7253;SDS011;4060;49.186;9.226;2024-02-16T00:54:44;2.97;;;2.65;;
7253;SDS011;4060;49.186;9.226;2024-02-16T00:57:14;3.30;;;3.00;;
7253;SDS011;4060;49.186;9.226;2024-02-16T00:59:47;3.20;;;2.70;;
7253;SDS011;4060;49.186;9.226;2024-02-16T01:02:17;3.58;;;2.92;;
7253;SDS011;4060;49.186;9.226;2024-02-16T01:04:48;3.40;;;2.70;;
7253;SDS011;4060;49.186;9.226;2024-02-16T01:07:23;3.33;;;3.00;;
7253;SDS011;4060;49.186;9.226;2024-02-16T01:09:53;3.17;;;2.67;;
7253;SDS011;4060;49.186;9.226;2024-02-16T01:12:23;3.75;;;2.80;;
7253;SDS011;4060;49.186;9.226;2024-02-16T01:14:53;3.13;;;2.58;;
7253;SDS011;4060;49.186;9.226;2024-02-16T01:17:23;4.10;;;2.63;;
7253;SDS011;4060;49.186;9.226;2024-02-16T01:19:52;3.22;;;2.80;;
7253;SDS011;4060;49.186;9.226;2024-02-16T01:22:24;2.97;;;2.78;;
7253;SDS011;4060;49.186;9.226;2024-02-16T01:24:55;2.90;;;2.70;;
7253;SDS011;4060;49.186;9.226;2024-02-16T01:27:26;2.70;;;2.47;;
7253;SDS011;4060;49.186;9.226;2024-02-16T01:29:56;2.65;;;2.45;;
7253;SDS011;4060;49.186;9.226;2024-02-16T01:32:27;3.00;;;2.65;;
7253;SDS011;4060;49.186;9.226;2024-02-16T01:34:57;2.60;;;2.40;;
7253;SDS011;4060;49.186;9.226;2024-02-16T01:37:29;3.42;;;2.53;;
7253;SDS011;4060;49.186;9.226;2024-02-16T01:39:59;2.67;;;2.45;;
7253;SDS011;4060;49.186;9.226;2024-02-16T01:42:30;2.58;;;2.38;;
7253;SDS011;4060;49.186;9.226;2024-02-16T01:45:01;2.97;;;2.60;;
7253;SDS011;4060;49.186;9.226;2024-02-16T01:47:31;3.25;;;2.33;;
7253;SDS011;4060;49.186;9.226;2024-02-16T01:50:02;2.78;;;2.58;;
7253;SDS011;4060;49.186;9.226;2024-02-16T01:52:36;2.90;;;2.53;;
7253;SDS011;4060;49.186;9.226;2024-02-16T01:55:06;2.30;;;2.10;;
7253;SDS011;4060;49.186;9.226;2024-02-16T01:57:37;2.30;;;2.10;;
7253;SDS011;4060;49.186;9.226;2024-02-16T02:00:08;3.25;;;2.40;;
7253;SDS011;4060;49.186;9.226;2024-02-16T02:02:43;2.40;;;2.20;;
7253;SDS011;4060;49.186;9.226;2024-02-16T02:05:14;3.20;;;2.30;;
7253;SDS011;4060;49.186;9.226;2024-02-16T02:07:46;2.03;;;1.88;;
7253;SDS011;4060;49.186;9.226;2024-02-16T02:10:16;4.53;;;2.70;;
7253;SDS011;4060;49.186;9.226;2024-02-16T02:12:45;2.72;;;2.53;;
7253;SDS011;4060;49.186;9.226;2024-02-16T02:15:15;2.60;;;2.40;;
7253;SDS011;4060;49.186;9.226;2024-02-16T02:17:45;2.50;;;2.30;;
7253;SDS011;4060;49.186;9.226;2024-02-16T02:20:15;2.20;;;2.00;;
7253;SDS011;4060;49.186;9.226;2024-02-16T02:22:48;2.40;;;2.20;;
7253;SDS011;4060;49.186;9.226;2024-02-16T02:25:18;2.85;;;2.50;;
7253;SDS011;4060;49.186;9.226;2024-02-16T02:27:47;2.70;;;2.50;;
7253;SDS011;4060;49.186;9.226;2024-02-16T02:30:17;3.13;;;2.40;;
7253;SDS011;4060;49.186;9.226;2024-02-16T02:32:47;2.95;;;2.60;;
7253;SDS011;4060;49.186;9.226;2024-02-16T02:35:18;2.80;;;2.50;;
7253;SDS011;4060;49.186;9.226;2024-02-16T02:37:50;3.17;;;2.70;;
7253;SDS011;4060;49.186;9.226;2024-02-16T02:40:20;2.90;;;2.47;;
7253;SDS011;4060;49.186;9.226;2024-02-16T02:42:49;3.13;;;2.40;;
7253;SDS011;4060;49.186;9.226;2024-02-16T02:45:19;2.65;;;2.45;;
7253;SDS011;4060;49.186;9.226;2024-02-16T02:47:49;2.30;;;2.10;;
7253;SDS011;4060;49.186;9.226;2024-02-16T02:50:19;2.70;;;2.50;;
7253;SDS011;4060;49.186;9.226;2024-02-16T02:52:51;2.83;;;2.58;;
7253;SDS011;4060;49.186;9.226;2024-02-16T02:55:21;2.78;;;2.10;;
7253;SDS011;4060;49.186;9.226;2024-02-16T02:57:50;2.70;;;2.47;;
7253;SDS011;4060;49.186;9.226;2024-02-16T03:00:21;2.35;;;2.15;;
7253;SDS011;4060;49.186;9.226;2024-02-16T03:02:52;3.10;;;2.30;;
7253;SDS011;4060;49.186;9.226;2024-02-16T03:05:23;2.28;;;2.10;;
7253;SDS011;4060;49.186;9.226;2024-02-16T03:07:54;2.38;;;2.17;;
7253;SDS011;4060;49.186;9.226;2024-02-16T03:10:25;3.00;;;2.28;;
7253;SDS011;4060;49.186;9.226;2024-02-16T03:13:01;2.40;;;2.20;;
7253;SDS011;4060;49.186;9.226;2024-02-16T03:15:33;2.92;;;2.60;;
7253;SDS011;4060;49.186;9.226;2024-02-16T03:18:03;2.53;;;2.33;;
7253;SDS011;4060;49.186;9.226;2024-02-16T03:20:35;2.80;;;2.60;;
7253;SDS011;4060;49.186;9.226;2024-02-16T03:23:07;2.17;;;2.03;;
7253;SDS011;4060;49.186;9.226;2024-02-16T03:25:37;3.05;;;2.60;;
7253;SDS011;4060;49.186;9.226;2024-02-16T03:28:09;2.20;;;1.95;;
7253;SDS011;4060;49.186;9.226;2024-02-16T03:30:41;2.50;;;2.30;;
7253;SDS011;4060;49.186;9.226;2024-02-16T03:33:12;2.78;;;2.22;;
7253;SDS011;4060;49.186;9.226;2024-02-16T03:35:42;3.60;;;2.10;;
7253;SDS011;4060;49.186;9.226;2024-02-16T03:38:14;2.83;;;2.60;;
7253;SDS011;4060;49.186;9.226;2024-02-16T03:40:44;3.95;;;2.40;;
7253;SDS011;4060;49.186;9.226;2024-02-16T03:43:14;2.22;;;1.85;;
7253;SDS011;4060;49.186;9.226;2024-02-16T03:45:44;2.25;;;2.15;;
7253;SDS011;4060;49.186;9.226;2024-02-16T03:48:14;2.67;;;2.40;;
7253;SDS011;4060;49.186;9.226;2024-02-16T03:50:43;2.40;;;2.20;;
7253;SDS011;4060;49.186;9.226;2024-02-16T03:53:15;2.55;;;2.35;;
7253;SDS011;4060;49.186;9.226;2024-02-16T03:55:45;4.70;;;2.85;;
7253;SDS011;4060;49.186;9.226;2024-02-16T03:58:16;2.33;;;2.13;;
7253;SDS011;4060;49.186;9.226;2024-02-16T04:00:46;2.58;;;2.38;;
7253;SDS011;4060;49.186;9.226;2024-02-16T04:03:16;2.58;;;2.35;;
7253;SDS011;4060;49.186;9.226;2024-02-16T04:05:46;2.55;;;2.22;;
7253;SDS011;4060;49.186;9.226;2024-02-16T04:08:21;2.80;;;2.10;;
7253;SDS011;4060;49.186;9.226;2024-02-16T04:10:51;3.50;;;2.50;;
7253;SDS011;4060;49.186;9.226;2024-02-16T04:13:20;2.50;;;2.30;;
7253;SDS011;4060;49.186;9.226;2024-02-16T04:15:50;2.80;;;2.40;;
7253;SDS011;4060;49.186;9.226;2024-02-16T04:18:20;2.45;;;2.25;;
7253;SDS011;4060;49.186;9.226;2024-02-16T04:20:50;2.40;;;2.20;;
7253;SDS011;4060;49.186;9.226;2024-02-16T04:23:22;2.28;;;2.00;;
7253;SDS011;4060;49.186;9.226;2024-02-16T04:25:52;2.70;;;2.40;;
7253;SDS011;4060;49.186;9.226;2024-02-16T04:28:22;2.70;;;2.00;;
7253;SDS011;4060;49.186;9.226;2024-02-16T04:30:51;2.63;;;2.42;;
7253;SDS011;4060;49.186;9.226;2024-02-16T04:33:21;2.42;;;2.22;;
7253;SDS011;4060;49.186;9.226;2024-02-16T04:35:51;2.30;;;2.10;;
7253;SDS011;4060;49.186;9.226;2024-02-16T04:38:24;2.55;;;2.25;;
7253;SDS011;4060;49.186;9.226;2024-02-16T04:40:54;2.83;;;2.47;;
7253;SDS011;4060;49.186;9.226;2024-02-16T04:43:24;2.13;;;2.00;;
7253;SDS011;4060;49.186;9.226;2024-02-16T04:45:54;2.30;;;2.10;;
7253;SDS011;4060;49.186;9.226;2024-02-16T04:48:24;4.55;;;2.42;;
7253;SDS011;4060;49.186;9.226;2024-02-16T04:50:54;2.55;;;2.35;;
7253;SDS011;4060;49.186;9.226;2024-02-16T04:53:26;2.90;;;2.35;;
7253;SDS011;4060;49.186;9.226;2024-02-16T04:55:59;2.40;;;2.15;;
7253;SDS011;4060;49.186;9.226;2024-02-16T04:58:28;2.85;;;2.35;;
7253;SDS011;4060;49.186;9.226;2024-02-16T05:00:58;2.83;;;2.20;;
7253;SDS011;4060;49.186;9.226;2024-02-16T05:03:28;2.58;;;2.38;;
7253;SDS011;4060;49.186;9.226;2024-02-16T05:05:58;2.45;;;2.25;;
7253;SDS011;4060;49.186;9.226;2024-02-16T05:08:32;2.75;;;2.53;;
7253;SDS011;4060;49.186;9.226;2024-02-16T05:11:02;3.10;;;2.80;;
7253;SDS011;4060;49.186;9.226;2024-02-16T05:13:35;2.60;;;2.40;;
7253;SDS011;4060;49.186;9.226;2024-02-16T05:16:09;4.20;;;2.60;;
7253;SDS011;4060;49.186;9.226;2024-02-16T05:18:39;2.88;;;2.38;;
7253;SDS011;4060;49.186;9.226;2024-02-16T05:21:09;3.28;;;2.50;;
7253;SDS011;4060;49.186;9.226;2024-02-16T05:23:41;2.60;;;2.40;;
7253;SDS011;4060;49.186;9.226;2024-02-16T05:26:12;2.90;;;2.53;;
7253;SDS011;4060;49.186;9.226;2024-02-16T05:28:42;2.58;;;2.40;;
7253;SDS011;4060;49.186;9.226;2024-02-16T05:31:16;2.67;;;2.47;;
7253;SDS011;4060;49.186;9.226;2024-02-16T05:33:47;4.45;;;2.30;;
7253;SDS011;4060;49.186;9.226;2024-02-16T05:36:20;3.78;;;2.60;;
7253;SDS011;4060;49.186;9.226;2024-02-16T05:38:56;3.63;;;2.53;;
7253;SDS011;4060;49.186;9.226;2024-02-16T05:41:36;2.85;;;2.65;;
7253;SDS011;4060;49.186;9.226;2024-02-16T05:44:06;3.13;;;2.83;;
7253;SDS011;4060;49.186;9.226;2024-02-16T05:46:35;2.45;;;2.20;;
7253;SDS011;4060;49.186;9.226;2024-02-16T05:49:05;2.83;;;2.60;;
7253;SDS011;4060;49.186;9.226;2024-02-16T05:51:36;3.05;;;2.72;;
7253;SDS011;4060;49.186;9.226;2024-02-16T05:54:12;3.70;;;2.47;;
7253;SDS011;4060;49.186;9.226;2024-02-16T05:56:43;3.15;;;2.60;;
7253;SDS011;4060;49.186;9.226;2024-02-16T05:59:14;2.88;;;2.67;;
7253;SDS011;4060;49.186;9.226;2024-02-16T06:01:45;3.20;;;2.90;;
7253;SDS011;4060;49.186;9.226;2024-02-16T06:04:16;3.88;;;3.33;;
7253;SDS011;4060;49.186;9.226;2024-02-16T06:06:47;4.00;;;2.70;;
7253;SDS011;4060;49.186;9.226;2024-02-16T06:09:19;4.95;;;3.28;;
7253;SDS011;4060;49.186;9.226;2024-02-16T06:11:48;3.53;;;2.90;;
7253;SDS011;4060;49.186;9.226;2024-02-16T06:14:18;3.17;;;2.78;;
7253;SDS011;4060;49.186;9.226;2024-02-16T06:16:49;2.92;;;2.42;;
7253;SDS011;4060;49.186;9.226;2024-02-16T06:19:19;2.85;;;2.50;;
7253;SDS011;4060;49.186;9.226;2024-02-16T06:21:49;2.97;;;2.75;;
7253;SDS011;4060;49.186;9.226;2024-02-16T06:24:23;2.65;;;2.45;;
7253;SDS011;4060;49.186;9.226;2024-02-16T06:26:54;3.70;;;2.63;;
7253;SDS011;4060;49.186;9.226;2024-02-16T06:29:23;3.13;;;2.80;;
7253;SDS011;4060;49.186;9.226;2024-02-16T06:31:54;3.92;;;2.83;;
7253;SDS011;4060;49.186;9.226;2024-02-16T06:34:24;3.20;;;2.40;;
7253;SDS011;4060;49.186;9.226;2024-02-16T06:36:55;3.83;;;2.38;;
7253;SDS011;4060;49.186;9.226;2024-02-16T06:39:26;2.97;;;2.58;;
7253;SDS011;4060;49.186;9.226;2024-02-16T06:41:57;2.70;;;2.45;;
7253;SDS011;4060;49.186;9.226;2024-02-16T06:44:26;3.67;;;2.92;;
7253;SDS011;4060;49.186;9.226;2024-02-16T06:46:56;2.53;;;2.33;;
7253;SDS011;4060;49.186;9.226;2024-02-16T06:49:27;3.95;;;2.67;;
7253;SDS011;4060;49.186;9.226;2024-02-16T06:51:59;4.18;;;2.92;;
7253;SDS011;4060;49.186;9.226;2024-02-16T06:54:33;3.63;;;2.80;;
7253;SDS011;4060;49.186;9.226;2024-02-16T06:57:02;3.17;;;2.88;;
7253;SDS011;4060;49.186;9.226;2024-02-16T06:59:33;2.60;;;2.40;;
7253;SDS011;4060;49.186;9.226;2024-02-16T07:02:05;2.80;;;2.45;;
7253;SDS011;4060;49.186;9.226;2024-02-16T07:04:38;3.15;;;2.85;;
7253;SDS011;4060;49.186;9.226;2024-02-16T07:07:12;2.80;;;2.30;;
7253;SDS011;4060;49.186;9.226;2024-02-16T07:09:44;2.50;;;2.30;;
7253;SDS011;4060;49.186;9.226;2024-02-16T07:12:15;2.65;;;2.45;;
7253;SDS011;4060;49.186;9.226;2024-02-16T07:18:04;3.20;;;2.08;;
7253;SDS011;4060;49.186;9.226;2024-02-16T07:20:38;3.13;;;2.20;;
7253;SDS011;4060;49.186;9.226;2024-02-16T07:23:11;3.25;;;2.95;;
7253;SDS011;4060;49.186;9.226;2024-02-16T07:25:45;2.58;;;2.35;;
7253;SDS011;4060;49.186;9.226;2024-02-16T07:28:16;2.50;;;2.30;;
7253;SDS011;4060;49.186;9.226;2024-02-16T07:30:51;3.05;;;2.75;;
7253;SDS011;4060;49.186;9.226;2024-02-16T07:33:22;2.80;;;2.60;;
7253;SDS011;4060;49.186;9.226;2024-02-16T07:35:54;3.85;;;2.85;;
7253;SDS011;4060;49.186;9.226;2024-02-16T12:10:28;7.20;;;4.97;;
7253;SDS011;4060;49.186;9.226;2024-02-16T12:12:58;5.63;;;4.80;;
7253;SDS011;4060;49.186;9.226;2024-02-16T12:15:28;6.82;;;4.80;;
7253;SDS011;4060;49.186;9.226;2024-02-16T12:17:58;5.82;;;4.93;;
7253;SDS011;4060;49.186;9.226;2024-02-16T12:20:29;7.03;;;4.70;;
7253;SDS011;4060;49.186;9.226;2024-02-16T12:22:59;5.75;;;4.55;;
7253;SDS011;4060;49.186;9.226;2024-02-16T12:25:41;5.43;;;4.75;;
7253;SDS011;4060;49.186;9.226;2024-02-16T12:28:11;5.53;;;3.80;;
7253;SDS011;4060;49.186;9.226;2024-02-16T12:30:40;4.97;;;4.28;;
7253;SDS011;4060;49.186;9.226;2024-02-16T12:33:10;5.28;;;4.35;;
7253;SDS011;4060;49.186;9.226;2024-02-16T12:35:39;5.85;;;3.80;;
7253;SDS011;4060;49.186;9.226;2024-02-16T12:38:09;5.97;;;4.07;;
7253;SDS011;4060;49.186;9.226;2024-02-16T12:40:41;6.25;;;4.10;;
7253;SDS011;4060;49.186;9.226;2024-02-16T12:43:10;4.38;;;3.97;;
7253;SDS011;4060;49.186;9.226;2024-02-16T12:45:40;5.72;;;3.60;;
7253;SDS011;4060;49.186;9.226;2024-02-16T12:48:09;3.17;;;2.88;;
7253;SDS011;4060;49.186;9.226;2024-02-16T12:50:40;5.68;;;3.22;;
7253;SDS011;4060;49.186;9.226;2024-02-16T12:53:10;4.55;;;3.25;;
7253;SDS011;4060;49.186;9.226;2024-02-16T12:55:41;4.32;;;2.95;;
7253;SDS011;4060;49.186;9.226;2024-02-16T12:58:12;4.65;;;2.97;;
7253;SDS011;4060;49.186;9.226;2024-02-16T13:00:43;4.95;;;3.15;;
7253;SDS011;4060;49.186;9.226;2024-02-16T13:03:12;5.00;;;3.17;;
7253;SDS011;4060;49.186;9.226;2024-02-16T13:05:42;3.63;;;3.03;;
7253;SDS011;4060;49.186;9.226;2024-02-16T13:08:11;5.63;;;3.17;;
7253;SDS011;4060;49.186;9.226;2024-02-16T13:10:43;7.00;;;3.15;;
7253;SDS011;4060;49.186;9.226;2024-02-16T13:13:13;5.30;;;3.00;;
7253;SDS011;4060;49.186;9.226;2024-02-16T13:15:42;3.42;;;2.90;;
7253;SDS011;4060;49.186;9.226;2024-02-16T13:18:14;3.80;;;3.00;;
7253;SDS011;4060;49.186;9.226;2024-02-16T13:20:44;5.43;;;3.08;;
7253;SDS011;4060;49.186;9.226;2024-02-16T13:23:15;6.47;;;3.00;;
7253;SDS011;4060;49.186;9.226;2024-02-16T13:25:46;3.20;;;2.90;;
7253;SDS011;4060;49.186;9.226;2024-02-16T13:28:16;5.07;;;3.22;;
7253;SDS011;4060;49.186;9.226;2024-02-16T13:30:46;5.22;;;3.20;;
7253;SDS011;4060;49.186;9.226;2024-02-16T13:33:18;5.93;;;3.17;;
7253;SDS011;4060;49.186;9.226;2024-02-16T13:35:48;3.22;;;2.92;;
7253;SDS011;4060;49.186;9.226;2024-02-16T13:38:17;4.53;;;3.40;;
7253;SDS011;4060;49.186;9.226;2024-02-16T13:40:49;3.70;;;2.90;;
7253;SDS011;4060;49.186;9.226;2024-02-16T13:43:20;3.55;;;2.90;;
7253;SDS011;4060;49.186;9.226;2024-02-16T13:45:50;6.15;;;2.88;;
7253;SDS011;4060;49.186;9.226;2024-02-16T13:48:22;4.43;;;2.92;;
7253;SDS011;4060;49.186;9.226;2024-02-16T13:50:51;3.45;;;2.63;;
7253;SDS011;4060;49.186;9.226;2024-02-16T13:53:23;6.53;;;2.92;;
7253;SDS011;4060;49.186;9.226;2024-02-16T13:55:56;3.20;;;2.47;;
7253;SDS011;4060;49.186;9.226;2024-02-16T13:58:30;4.65;;;2.88;;
7253;SDS011;4060;49.186;9.226;2024-02-16T14:01:00;2.92;;;2.50;;
7253;SDS011;4060;49.186;9.226;2024-02-16T14:03:30;4.68;;;2.53;;
7253;SDS011;4060;49.186;9.226;2024-02-16T14:06:02;3.30;;;3.00;;
7253;SDS011;4060;49.186;9.226;2024-02-16T14:08:34;4.90;;;2.60;;
7253;SDS011;4060;49.186;9.226;2024-02-16T14:11:05;6.55;;;3.05;;
7253;SDS011;4060;49.186;9.226;2024-02-16T14:13:35;4.32;;;2.65;;
7253;SDS011;4060;49.186;9.226;2024-02-16T14:16:05;3.17;;;2.50;;
7253;SDS011;4060;49.186;9.226;2024-02-16T14:18:36;6.05;;;3.10;;
7253;SDS011;4060;49.186;9.226;2024-02-16T14:21:06;6.05;;;2.95;;
7253;SDS011;4060;49.186;9.226;2024-02-16T14:23:36;3.33;;;2.78;;
7253;SDS011;4060;49.186;9.226;2024-02-16T14:26:08;4.97;;;2.92;;
7253;SDS011;4060;49.186;9.226;2024-02-16T14:28:37;3.47;;;2.58;;
7253;SDS011;4060;49.186;9.226;2024-02-16T14:31:07;3.05;;;2.60;;
7253;SDS011;4060;49.186;9.226;2024-02-16T14:33:37;3.35;;;2.25;;
7253;SDS011;4060;49.186;9.226;2024-02-16T14:36:07;4.68;;;2.83;;
7253;SDS011;4060;49.186;9.226;2024-02-16T14:38:37;4.90;;;2.75;;
7253;SDS011;4060;49.186;9.226;2024-02-16T14:41:11;4.65;;;2.60;;
7253;SDS011;4060;49.186;9.226;2024-02-16T14:43:43;4.00;;;2.65;;
7253;SDS011;4060;49.186;9.226;2024-02-16T14:46:13;2.95;;;2.58;;
7253;SDS011;4060;49.186;9.226;2024-02-16T14:48:46;3.13;;;2.25;;
7253;SDS011;4060;49.186;9.226;2024-02-16T14:51:16;4.88;;;2.75;;
7253;SDS011;4060;49.186;9.226;2024-02-16T14:53:46;4.53;;;2.80;;
7253;SDS011;4060;49.186;9.226;2024-02-16T14:56:18;3.35;;;2.28;;
7253;SDS011;4060;49.186;9.226;2024-02-16T14:58:48;4.78;;;2.67;;
7253;SDS011;4060;49.186;9.226;2024-02-16T15:01:18;3.90;;;2.75;;
7253;SDS011;4060;49.186;9.226;2024-02-16T15:03:48;3.33;;;2.58;;
7253;SDS011;4060;49.186;9.226;2024-02-16T15:06:24;5.75;;;2.90;;
7253;SDS011;4060;49.186;9.226;2024-02-16T15:08:55;2.70;;;2.40;;
7253;SDS011;4060;49.186;9.226;2024-02-16T15:11:26;6.65;;;2.92;;
7253;SDS011;4060;49.186;9.226;2024-02-16T15:13:56;3.65;;;2.70;;
7253;SDS011;4060;49.186;9.226;2024-02-16T15:16:25;3.03;;;2.38;;
7253;SDS011;4060;49.186;9.226;2024-02-16T15:18:55;3.28;;;2.30;;
7253;SDS011;4060;49.186;9.226;2024-02-16T15:21:26;5.28;;;2.60;;
7253;SDS011;4060;49.186;9.226;2024-02-16T15:23:56;4.03;;;2.40;;
7253;SDS011;4060;49.186;9.226;2024-02-16T15:26:28;4.10;;;2.30;;
7253;SDS011;4060;49.186;9.226;2024-02-16T15:28:57;2.60;;;2.17;;
7253;SDS011;4060;49.186;9.226;2024-02-16T15:31:26;4.88;;;2.65;;
7253;SDS011;4060;49.186;9.226;2024-02-16T15:33:56;3.58;;;2.00;;
7253;SDS011;4060;49.186;9.226;2024-02-16T15:36:30;2.88;;;2.50;;
7253;SDS011;4060;49.186;9.226;2024-02-16T15:39:00;6.75;;;2.63;;
7253;SDS011;4060;49.186;9.226;2024-02-16T15:41:32;6.75;;;2.30;;
7253;SDS011;4060;49.186;9.226;2024-02-16T15:44:07;4.60;;;2.50;;
7253;SDS011;4060;49.186;9.226;2024-02-16T15:46:39;2.33;;;2.13;;
7253;SDS011;4060;49.186;9.226;2024-02-16T15:49:10;4.30;;;2.70;;
7253;SDS011;4060;49.186;9.226;2024-02-16T15:51:40;11.88;;;3.20;;
7253;SDS011;4060;49.186;9.226;2024-02-16T15:54:10;8.27;;;2.35;;
7253;SDS011;4060;49.186;9.226;2024-02-16T15:56:43;6.20;;;2.60;;
7253;SDS011;4060;49.186;9.226;2024-02-16T15:59:14;4.65;;;2.22;;
7253;SDS011;4060;49.186;9.226;2024-02-16T16:01:44;3.15;;;2.08;;
7253;SDS011;4060;49.186;9.226;2024-02-16T16:07:11;5.13;;;2.45;;
7253;SDS011;4060;49.186;9.226;2024-02-16T16:09:41;3.88;;;2.50;;
7253;SDS011;4060;49.186;9.226;2024-02-16T16:12:13;5.57;;;2.72;;
7253;SDS011;4060;49.186;9.226;2024-02-16T16:14:42;2.35;;;1.70;;
7253;SDS011;4060;49.186;9.226;2024-02-16T16:17:14;2.63;;;1.55;;
7253;SDS011;4060;49.186;9.226;2024-02-16T16:19:46;3.30;;;1.73;;
7253;SDS011;4060;49.186;9.226;2024-02-16T16:22:17;2.38;;;2.00;;
7253;SDS011;4060;49.186;9.226;2024-02-16T16:24:47;4.07;;;1.58;;
7253;SDS011;4060;49.186;9.226;2024-02-16T16:27:19;3.10;;;1.73;;
7253;SDS011;4060;49.186;9.226;2024-02-16T16:29:49;2.00;;;1.27;;
7253;SDS011;4060;49.186;9.226;2024-02-16T16:32:19;3.38;;;1.77;;
7253;SDS011;4060;49.186;9.226;2024-02-16T16:34:50;2.20;;;1.48;;
7253;SDS011;4060;49.186;9.226;2024-02-16T16:37:19;1.60;;;1.45;;
7253;SDS011;4060;49.186;9.226;2024-02-16T16:39:49;3.92;;;1.40;;
7253;SDS011;4060;49.186;9.226;2024-02-16T16:42:21;1.73;;;1.60;;
7253;SDS011;4060;49.186;9.226;2024-02-16T16:44:52;2.85;;;1.30;;
7253;SDS011;4060;49.186;9.226;2024-02-16T16:47:22;1.80;;;1.40;;
7253;SDS011;4060;49.186;9.226;2024-02-16T16:49:52;4.70;;;1.95;;
7253;SDS011;4060;49.186;9.226;2024-02-16T16:52:22;1.45;;;1.30;;
7253;SDS011;4060;49.186;9.226;2024-02-16T16:54:52;2.90;;;1.33;;
7253;SDS011;4060;49.186;9.226;2024-02-16T16:57:24;2.30;;;1.33;;
7253;SDS011;4060;49.186;9.226;2024-02-16T16:59:54;1.92;;;1.48;;
7253;SDS011;4060;49.186;9.226;2024-02-16T17:02:24;2.78;;;1.83;;
7253;SDS011;4060;49.186;9.226;2024-02-16T17:04:56;2.25;;;1.38;;
7253;SDS011;4060;49.186;9.226;2024-02-16T17:07:27;2.60;;;1.40;;
7253;SDS011;4060;49.186;9.226;2024-02-16T17:09:57;2.45;;;1.60;;
7253;SDS011;4060;49.186;9.226;2024-02-16T17:12:29;3.60;;;1.85;;
7253;SDS011;4060;49.186;9.226;2024-02-16T17:14:58;2.10;;;1.63;;
7253;SDS011;4060;49.186;9.226;2024-02-16T17:17:28;1.58;;;1.27;;
7253;SDS011;4060;49.186;9.226;2024-02-16T17:19:59;1.95;;;1.60;;
7253;SDS011;4060;49.186;9.226;2024-02-16T17:22:29;2.55;;;1.75;;
7253;SDS011;4060;49.186;9.226;2024-02-16T17:24:59;2.63;;;1.63;;
7253;SDS011;4060;49.186;9.226;2024-02-16T17:27:32;3.13;;;2.15;;
7253;SDS011;4060;49.186;9.226;2024-02-16T17:30:03;2.72;;;1.70;;
7253;SDS011;4060;49.186;9.226;2024-02-16T17:32:34;1.73;;;1.60;;
7253;SDS011;4060;49.186;9.226;2024-02-16T17:35:04;3.13;;;2.20;;
7253;SDS011;4060;49.186;9.226;2024-02-16T17:37:35;2.97;;;1.92;;
7253;SDS011;4060;49.186;9.226;2024-02-16T17:40:05;2.17;;;1.98;;
7253;SDS011;4060;49.186;9.226;2024-02-16T17:42:38;3.20;;;2.20;;
7253;SDS011;4060;49.186;9.226;2024-02-16T17:45:08;2.72;;;2.13;;
7253;SDS011;4060;49.186;9.226;2024-02-16T17:47:38;3.45;;;2.30;;
7253;SDS011;4060;49.186;9.226;2024-02-16T17:50:08;3.85;;;2.00;;
7253;SDS011;4060;49.186;9.226;2024-02-16T17:52:38;3.13;;;2.53;;
7253;SDS011;4060;49.186;9.226;2024-02-16T17:55:08;3.00;;;2.20;;
7253;SDS011;4060;49.186;9.226;2024-02-16T17:57:39;2.88;;;2.55;;
7253;SDS011;4060;49.186;9.226;2024-02-16T18:00:10;3.65;;;2.10;;
7253;SDS011;4060;49.186;9.226;2024-02-16T18:02:40;7.90;;;4.88;;
7253;SDS011;4060;49.186;9.226;2024-02-16T18:05:10;5.05;;;3.83;;
7253;SDS011;4060;49.186;9.226;2024-02-16T18:07:40;4.53;;;3.00;;
7253;SDS011;4060;49.186;9.226;2024-02-16T18:10:17;3.92;;;2.65;;
7253;SDS011;4060;49.186;9.226;2024-02-16T18:12:48;4.55;;;3.08;;
7253;SDS011;4060;49.186;9.226;2024-02-16T18:15:18;4.68;;;2.75;;
7253;SDS011;4060;49.186;9.226;2024-02-16T18:17:48;4.15;;;2.70;;
7253;SDS011;4060;49.186;9.226;2024-02-16T18:20:18;2.72;;;2.17;;
7253;SDS011;4060;49.186;9.226;2024-02-16T18:22:50;3.63;;;2.70;;
7253;SDS011;4060;49.186;9.226;2024-02-16T18:25:23;3.97;;;3.05;;
7253;SDS011;4060;49.186;9.226;2024-02-16T18:27:56;4.28;;;2.17;;
7253;SDS011;4060;49.186;9.226;2024-02-16T18:30:26;3.10;;;2.42;;
7253;SDS011;4060;49.186;9.226;2024-02-16T18:32:56;3.53;;;2.50;;
7253;SDS011;4060;49.186;9.226;2024-02-16T18:35:25;8.80;;;2.60;;
7253;SDS011;4060;49.186;9.226;2024-02-16T18:37:55;6.72;;;2.30;;
7253;SDS011;4060;49.186;9.226;2024-02-16T18:40:24;4.07;;;2.63;;
7253;SDS011;4060;49.186;9.226;2024-02-16T18:42:56;4.47;;;2.50;;
7253;SDS011;4060;49.186;9.226;2024-02-16T18:45:25;2.55;;;2.35;;
7253;SDS011;4060;49.186;9.226;2024-02-16T18:47:55;3.30;;;2.03;;
7253;SDS011;4060;49.186;9.226;2024-02-16T18:50:24;4.22;;;2.35;;
7253;SDS011;4060;49.186;9.226;2024-02-16T18:52:57;3.28;;;2.40;;
7253;SDS011;4060;49.186;9.226;2024-02-16T18:55:44;3.35;;;2.50;;
7253;SDS011;4060;49.186;9.226;2024-02-16T18:58:28;3.15;;;2.45;;
7253;SDS011;4060;49.186;9.226;2024-02-16T19:01:16;3.95;;;2.45;;
7253;SDS011;4060;49.186;9.226;2024-02-16T19:04:03;2.85;;;2.13;;
7253;SDS011;4060;49.186;9.226;2024-02-16T19:06:34;4.50;;;2.40;;
7253;SDS011;4060;49.186;9.226;2024-02-16T19:09:04;2.40;;;2.08;;
7253;SDS011;4060;49.186;9.226;2024-02-16T19:11:53;3.13;;;2.17;;
7253;SDS011;4060;49.186;9.226;2024-02-16T19:14:31;2.40;;;2.20;;
7253;SDS011;4060;49.186;9.226;2024-02-16T19:17:01;3.90;;;2.50;;
7253;SDS011;4060;49.186;9.226;2024-02-16T19:19:31;2.33;;;2.13;;
7253;SDS011;4060;49.186;9.226;2024-02-16T19:22:11;2.40;;;2.20;;
7253;SDS011;4060;49.186;9.226;2024-02-16T19:25:01;3.50;;;2.42;;
7253;SDS011;4060;49.186;9.226;2024-02-16T19:27:32;3.75;;;2.38;;
7253;SDS011;4060;49.186;9.226;2024-02-16T19:30:03;2.75;;;2.35;;
7253;SDS011;4060;49.186;9.226;2024-02-16T19:32:34;3.33;;;2.33;;
7253;SDS011;4060;49.186;9.226;2024-02-16T19:35:06;3.35;;;2.40;;
7253;SDS011;4060;49.186;9.226;2024-02-16T19:37:41;2.30;;;2.10;;
7253;SDS011;4060;49.186;9.226;2024-02-16T19:40:11;3.40;;;3.10;;
7253;SDS011;4060;49.186;9.226;2024-02-16T19:42:42;2.95;;;2.67;;
7253;SDS011;4060;49.186;9.226;2024-02-16T19:45:25;3.33;;;2.97;;
7253;SDS011;4060;49.186;9.226;2024-02-16T19:48:01;3.58;;;2.63;;
7253;SDS011;4060;49.186;9.226;2024-02-16T19:50:30;3.28;;;3.00;;
7253;SDS011;4060;49.186;9.226;2024-02-16T19:53:00;4.70;;;3.65;;
7253;SDS011;4060;49.186;9.226;2024-02-16T19:55:31;3.70;;;3.38;;
7253;SDS011;4060;49.186;9.226;2024-02-16T19:58:01;3.55;;;3.25;;
7253;SDS011;4060;49.186;9.226;2024-02-16T20:00:33;4.80;;;3.35;;
7253;SDS011;4060;49.186;9.226;2024-02-16T20:03:05;3.67;;;2.90;;
7253;SDS011;4060;49.186;9.226;2024-02-16T20:05:34;5.68;;;4.00;;
7253;SDS011;4060;49.186;9.226;2024-02-16T20:08:05;3.80;;;3.40;;
7253;SDS011;4060;49.186;9.226;2024-02-16T20:10:34;3.25;;;2.88;;
7253;SDS011;4060;49.186;9.226;2024-02-16T20:13:03;5.32;;;3.38;;
7253;SDS011;4060;49.186;9.226;2024-02-16T20:15:35;3.45;;;2.97;;
7253;SDS011;4060;49.186;9.226;2024-02-16T20:18:04;4.60;;;3.72;;